Dale Hollow Observed Data For Previous 48 Hours

Caption
Day and Hour Reservoir Elevation (behind dam)* Tailwater Elevation (below dam)* Average Hourly Discharge*
1/15/2018 1 AM CST 641.02 503.52 25
1/15/2018 2 AM CST 641.02 503.32 25
1/15/2018 3 AM CST 641.02 503.32 25
1/15/2018 4 AM CST 641.02 507.82 1,645
1/15/2018 5 AM CST 641.02 508.42 1,655
1/15/2018 6 AM CST 641.02 511.22 3,365
1/15/2018 7 AM CST 641.01 511.51 3,365
1/15/2018 8 AM CST 641.01 511.71 3,365
1/15/2018 9 AM CST 641.00 511.80 3,385
1/15/2018 10 AM CST 641.00 509.60 1,665
1/15/2018 11 AM CST 640.99 509.09 1,665
1/15/2018 12 PM CST 640.98 508.88 1,665
1/15/2018 1 PM CST 640.97 504.97 25
1/15/2018 2 PM CST 640.97 504.07 25
1/15/2018 3 PM CST 640.97 503.57 25
1/15/2018 4 PM CST 640.97 503.37 25
1/15/2018 5 PM CST 640.97 507.87 1,645
1/15/2018 6 PM CST 640.97 508.57 1,655
1/15/2018 7 PM CST 640.97 508.77 1,665
1/15/2018 8 PM CST 640.96 508.66 1,655
1/15/2018 9 PM CST 640.96 508.66 1,655
1/15/2018 10 PM CST 640.96 508.66 1,655
1/15/2018 11 PM CST 640.96 505.06 25
1/16/2018 12 AM CST 640.96 504.16 25
1/16/2018 1 AM CST 640.96 503.76 25
1/16/2018 2 AM CST 640.96 503.46 25
1/16/2018 3 AM CST 640.96 503.36 25
1/16/2018 4 AM CST 640.96 503.26 25
1/16/2018 5 AM CST 640.96 503.16 25
1/16/2018 6 AM CST 640.96 507.76 1,645
1/16/2018 7 AM CST 640.95 508.65 1,655
1/16/2018 8 AM CST 640.95 508.75 1,665
1/16/2018 9 AM CST 640.95 508.65 1,655
1/16/2018 10 AM CST 640.95 508.65 1,655
1/16/2018 11 AM CST 640.95 508.65 1,655
1/16/2018 12 PM CST 640.95 508.65 1,655
1/16/2018 1 PM CST 640.95 508.25 25
1/16/2018 2 PM CST 640.95 504.25 25
1/16/2018 3 PM CST 640.95 503.81 25
1/16/2018 4 PM CST 640.95 503.55 25
1/16/2018 5 PM CST 640.95 507.65 1,645
1/16/2018 6 PM CST 640.95 511.05 3,365
1/16/2018 7 PM CST 640.94 511.84 3,385
1/16/2018 8 PM CST 640.94 512.04 3,385
1/16/2018 9 PM CST 640.93 512.13 3,385
1/16/2018 10 PM CST 640.92 512.12 3,385
1/16/2018 11 PM CST 640.92 509.72 1,675
1/17/2018 12 AM CST 640.91 505.31 25
1/17/2018 1 AM CST 640.91 504.51 25
1/17/2018 2 AM CST 640.91 503.91 25
1/17/2018 3 AM CST 640.91 503.61 25
1/17/2018 4 AM CST 640.91 503.41 25
1/17/2018 5 AM CST 640.91 507.61 1,645
1/17/2018 6 AM CST 640.90 511.30 3,365
1/17/2018 7 AM CST 640.90 511.90 3,385
1/17/2018 8 AM CST 640.89 512.09 3,385
1/17/2018 9 AM CST - 999.00 - 999.00 -999
1/17/2018 10 AM CST 640.87 512.17 3,405
1/17/2018 11 AM CST 640.87 509.57 1,665
1/17/2018 12 PM CST 640.87 508.87 1,665
1/17/2018 1 PM CST 640.85 505.15 25
1/17/2018 2 PM CST 640.85 504.25 25
1/17/2018 3 PM CST 640.85 503.65 25
1/17/2018 4 PM CST 640.85 503.45 25
1/17/2018 5 PM CST 640.84 507.54 1,645
1/17/2018 6 PM CST 640.84 508.44 1,655
1/17/2018 7 PM CST 640.84 508.64 1,665
1/17/2018 8 PM CST 640.84 508.64 1,665
1/17/2018 9 PM CST 640.83 508.73 1,665

Elevations are in feet above sea level. Discharges are in cubic feet per second and are reported at the end of the hour.